sensor_id;sensor_type;location;lat;lon;timestamp;P1;durP1;ratioP1;P2;durP2;ratioP2
68803;SDS011;55787;52.678;13.314;2023-07-16T00:01:46;6.93;;;2.30;;
68803;SDS011;55787;52.678;13.314;2023-07-16T00:04:13;7.22;;;2.20;;
68803;SDS011;55787;52.678;13.314;2023-07-16T00:06:40;7.35;;;2.30;;
68803;SDS011;55787;52.678;13.314;2023-07-16T00:09:06;7.05;;;2.22;;
68803;SDS011;55787;52.678;13.314;2023-07-16T00:11:33;6.72;;;2.35;;
68803;SDS011;55787;52.678;13.314;2023-07-16T00:14:00;7.57;;;2.10;;
68803;SDS011;55787;52.678;13.314;2023-07-16T00:16:28;6.57;;;1.98;;
68803;SDS011;55787;52.678;13.314;2023-07-16T00:18:55;6.28;;;2.20;;
68803;SDS011;55787;52.678;13.314;2023-07-16T00:21:22;7.03;;;2.42;;
68803;SDS011;55787;52.678;13.314;2023-07-16T00:23:48;6.63;;;2.10;;
68803;SDS011;55787;52.678;13.314;2023-07-16T00:26:15;6.35;;;2.17;;
68803;SDS011;55787;52.678;13.314;2023-07-16T00:28:42;6.68;;;2.38;;
68803;SDS011;55787;52.678;13.314;2023-07-16T00:31:09;6.40;;;2.20;;
68803;SDS011;55787;52.678;13.314;2023-07-16T00:33:36;7.13;;;2.42;;
68803;SDS011;55787;52.678;13.314;2023-07-16T00:36:03;6.30;;;2.03;;
68803;SDS011;55787;52.678;13.314;2023-07-16T00:38:30;6.60;;;2.30;;
68803;SDS011;55787;52.678;13.314;2023-07-16T00:40:57;7.13;;;2.47;;
68803;SDS011;55787;52.678;13.314;2023-07-16T00:43:23;6.57;;;2.40;;
68803;SDS011;55787;52.678;13.314;2023-07-16T00:45:50;6.53;;;2.13;;
68803;SDS011;55787;52.678;13.314;2023-07-16T00:48:17;7.20;;;2.50;;
68803;SDS011;55787;52.678;13.314;2023-07-16T00:50:45;6.53;;;2.20;;
68803;SDS011;55787;52.678;13.314;2023-07-16T00:53:12;8.15;;;2.60;;
68803;SDS011;55787;52.678;13.314;2023-07-16T00:55:38;7.15;;;2.55;;
68803;SDS011;55787;52.678;13.314;2023-07-16T00:58:06;7.07;;;2.40;;
68803;SDS011;55787;52.678;13.314;2023-07-16T01:00:37;7.50;;;2.63;;
68803;SDS011;55787;52.678;13.314;2023-07-16T01:03:06;7.65;;;2.25;;
68803;SDS011;55787;52.678;13.314;2023-07-16T01:05:36;7.47;;;2.53;;
68803;SDS011;55787;52.678;13.314;2023-07-16T01:08:09;6.20;;;2.38;;
68803;SDS011;55787;52.678;13.314;2023-07-16T01:10:38;6.13;;;2.13;;
68803;SDS011;55787;52.678;13.314;2023-07-16T01:13:06;6.53;;;2.20;;
68803;SDS011;55787;52.678;13.314;2023-07-16T01:15:32;6.85;;;2.42;;
68803;SDS011;55787;52.678;13.314;2023-07-16T01:17:59;6.82;;;2.28;;
68803;SDS011;55787;52.678;13.314;2023-07-16T01:20:26;7.43;;;2.33;;
68803;SDS011;55787;52.678;13.314;2023-07-16T01:25:48;6.63;;;2.30;;
68803;SDS011;55787;52.678;13.314;2023-07-16T01:31:08;6.82;;;2.33;;
68803;SDS011;55787;52.678;13.314;2023-07-16T01:33:37;7.80;;;2.40;;
68803;SDS011;55787;52.678;13.314;2023-07-16T01:36:07;6.75;;;2.13;;
68803;SDS011;55787;52.678;13.314;2023-07-16T01:38:35;7.05;;;2.45;;
68803;SDS011;55787;52.678;13.314;2023-07-16T01:41:02;6.40;;;2.33;;
68803;SDS011;55787;52.678;13.314;2023-07-16T01:43:29;8.43;;;2.60;;
68803;SDS011;55787;52.678;13.314;2023-07-16T01:45:55;7.18;;;2.90;;
68803;SDS011;55787;52.678;13.314;2023-07-16T01:48:27;7.13;;;2.80;;
68803;SDS011;55787;52.678;13.314;2023-07-16T01:50:58;8.98;;;3.08;;
68803;SDS011;55787;52.678;13.314;2023-07-16T01:53:25;7.75;;;2.95;;
68803;SDS011;55787;52.678;13.314;2023-07-16T01:55:52;8.15;;;3.25;;
68803;SDS011;55787;52.678;13.314;2023-07-16T01:58:19;8.00;;;3.13;;
68803;SDS011;55787;52.678;13.314;2023-07-16T02:00:46;7.93;;;2.90;;
68803;SDS011;55787;52.678;13.314;2023-07-16T02:03:14;8.57;;;3.30;;
68803;SDS011;55787;52.678;13.314;2023-07-16T02:05:41;8.18;;;3.00;;
68803;SDS011;55787;52.678;13.314;2023-07-16T02:08:08;8.13;;;3.15;;
68803;SDS011;55787;52.678;13.314;2023-07-16T02:10:34;8.07;;;3.20;;
68803;SDS011;55787;52.678;13.314;2023-07-16T02:13:01;8.50;;;3.22;;
68803;SDS011;55787;52.678;13.314;2023-07-16T02:15:28;8.40;;;3.58;;
68803;SDS011;55787;52.678;13.314;2023-07-16T02:17:56;8.30;;;2.80;;
68803;SDS011;55787;52.678;13.314;2023-07-16T02:20:25;8.60;;;3.30;;
68803;SDS011;55787;52.678;13.314;2023-07-16T02:22:52;7.45;;;2.85;;
68803;SDS011;55787;52.678;13.314;2023-07-16T02:25:19;7.30;;;2.90;;
68803;SDS011;55787;52.678;13.314;2023-07-16T02:27:45;7.28;;;3.08;;
68803;SDS011;55787;52.678;13.314;2023-07-16T02:30:13;8.57;;;3.13;;
68803;SDS011;55787;52.678;13.314;2023-07-16T02:32:41;7.95;;;3.03;;
68803;SDS011;55787;52.678;13.314;2023-07-16T02:35:08;8.27;;;3.05;;
68803;SDS011;55787;52.678;13.314;2023-07-16T02:37:35;7.43;;;2.75;;
68803;SDS011;55787;52.678;13.314;2023-07-16T02:40:02;7.43;;;3.20;;
68803;SDS011;55787;52.678;13.314;2023-07-16T02:42:29;8.73;;;3.30;;
68803;SDS011;55787;52.678;13.314;2023-07-16T02:44:56;9.13;;;3.30;;
68803;SDS011;55787;52.678;13.314;2023-07-16T02:47:22;8.55;;;3.00;;
68803;SDS011;55787;52.678;13.314;2023-07-16T02:49:52;9.35;;;3.25;;
68803;SDS011;55787;52.678;13.314;2023-07-16T02:52:18;8.35;;;3.58;;
68803;SDS011;55787;52.678;13.314;2023-07-16T02:54:45;10.45;;;3.63;;
68803;SDS011;55787;52.678;13.314;2023-07-16T02:57:12;9.68;;;3.70;;
68803;SDS011;55787;52.678;13.314;2023-07-16T02:59:39;8.45;;;3.40;;
68803;SDS011;55787;52.678;13.314;2023-07-16T03:02:05;9.40;;;3.92;;
68803;SDS011;55787;52.678;13.314;2023-07-16T03:04:32;9.73;;;3.85;;
68803;SDS011;55787;52.678;13.314;2023-07-16T03:06:58;7.93;;;3.50;;
68803;SDS011;55787;52.678;13.314;2023-07-16T03:09:25;9.25;;;3.70;;
68803;SDS011;55787;52.678;13.314;2023-07-16T03:11:52;9.60;;;3.75;;
68803;SDS011;55787;52.678;13.314;2023-07-16T03:14:19;7.85;;;3.40;;
68803;SDS011;55787;52.678;13.314;2023-07-16T03:16:45;8.93;;;3.67;;
68803;SDS011;55787;52.678;13.314;2023-07-16T03:19:12;8.70;;;3.25;;
68803;SDS011;55787;52.678;13.314;2023-07-16T03:21:39;8.10;;;3.47;;
68803;SDS011;55787;52.678;13.314;2023-07-16T03:24:05;10.32;;;3.78;;
68803;SDS011;55787;52.678;13.314;2023-07-16T03:26:32;10.80;;;3.90;;
68803;SDS011;55787;52.678;13.314;2023-07-16T03:28:59;9.50;;;4.15;;
68803;SDS011;55787;52.678;13.314;2023-07-16T03:31:25;8.45;;;3.75;;
68803;SDS011;55787;52.678;13.314;2023-07-16T03:33:52;11.38;;;4.05;;
68803;SDS011;55787;52.678;13.314;2023-07-16T03:36:19;9.13;;;3.67;;
68803;SDS011;55787;52.678;13.314;2023-07-16T03:38:46;9.25;;;3.92;;
68803;SDS011;55787;52.678;13.314;2023-07-16T03:41:12;9.05;;;3.70;;
68803;SDS011;55787;52.678;13.314;2023-07-16T03:43:39;10.40;;;4.07;;
68803;SDS011;55787;52.678;13.314;2023-07-16T03:46:06;9.18;;;3.50;;
68803;SDS011;55787;52.678;13.314;2023-07-16T03:48:34;8.30;;;3.55;;
68803;SDS011;55787;52.678;13.314;2023-07-16T03:51:02;7.95;;;3.20;;
68803;SDS011;55787;52.678;13.314;2023-07-16T03:53:29;8.82;;;3.55;;
68803;SDS011;55787;52.678;13.314;2023-07-16T03:55:56;9.30;;;3.53;;
68803;SDS011;55787;52.678;13.314;2023-07-16T03:58:22;10.00;;;3.30;;
68803;SDS011;55787;52.678;13.314;2023-07-16T04:00:50;7.32;;;2.90;;
68803;SDS011;55787;52.678;13.314;2023-07-16T04:03:16;7.65;;;2.80;;
68803;SDS011;55787;52.678;13.314;2023-07-16T04:05:43;8.10;;;3.10;;
68803;SDS011;55787;52.678;13.314;2023-07-16T04:08:10;7.97;;;3.20;;
68803;SDS011;55787;52.678;13.314;2023-07-16T04:10:36;9.00;;;3.38;;
68803;SDS011;55787;52.678;13.314;2023-07-16T04:13:03;8.10;;;3.22;;
68803;SDS011;55787;52.678;13.314;2023-07-16T04:15:30;7.40;;;3.05;;
68803;SDS011;55787;52.678;13.314;2023-07-16T04:17:56;7.70;;;3.25;;
68803;SDS011;55787;52.678;13.314;2023-07-16T04:20:23;9.27;;;3.53;;
68803;SDS011;55787;52.678;13.314;2023-07-16T04:22:51;9.13;;;3.38;;
68803;SDS011;55787;52.678;13.314;2023-07-16T04:25:18;9.35;;;3.67;;
68803;SDS011;55787;52.678;13.314;2023-07-16T04:27:45;9.25;;;3.65;;
68803;SDS011;55787;52.678;13.314;2023-07-16T04:30:12;8.18;;;3.17;;
68803;SDS011;55787;52.678;13.314;2023-07-16T04:32:38;8.25;;;3.08;;
68803;SDS011;55787;52.678;13.314;2023-07-16T04:35:05;8.07;;;2.90;;
68803;SDS011;55787;52.678;13.314;2023-07-16T04:37:32;10.05;;;3.50;;
68803;SDS011;55787;52.678;13.314;2023-07-16T04:39:59;9.10;;;3.42;;
68803;SDS011;55787;52.678;13.314;2023-07-16T04:42:25;9.10;;;3.00;;
68803;SDS011;55787;52.678;13.314;2023-07-16T04:44:52;7.90;;;2.92;;
68803;SDS011;55787;52.678;13.314;2023-07-16T04:47:19;7.47;;;3.03;;
68803;SDS011;55787;52.678;13.314;2023-07-16T04:49:46;8.50;;;3.45;;
68803;SDS011;55787;52.678;13.314;2023-07-16T04:52:12;9.23;;;3.08;;
68803;SDS011;55787;52.678;13.314;2023-07-16T04:54:39;8.68;;;2.90;;
68803;SDS011;55787;52.678;13.314;2023-07-16T04:57:06;7.80;;;3.30;;
68803;SDS011;55787;52.678;13.314;2023-07-16T04:59:33;7.57;;;2.90;;
68803;SDS011;55787;52.678;13.314;2023-07-16T05:02:02;6.85;;;2.40;;
68803;SDS011;55787;52.678;13.314;2023-07-16T05:04:31;7.10;;;2.50;;
68803;SDS011;55787;52.678;13.314;2023-07-16T05:07:00;7.20;;;2.67;;
68803;SDS011;55787;52.678;13.314;2023-07-16T05:09:30;6.82;;;2.67;;
68803;SDS011;55787;52.678;13.314;2023-07-16T05:11:57;8.57;;;3.20;;
68803;SDS011;55787;52.678;13.314;2023-07-16T05:14:25;7.70;;;2.50;;
68803;SDS011;55787;52.678;13.314;2023-07-16T05:16:54;7.75;;;2.50;;
68803;SDS011;55787;52.678;13.314;2023-07-16T05:19:22;7.53;;;2.75;;
68803;SDS011;55787;52.678;13.314;2023-07-16T05:21:49;8.70;;;2.80;;
68803;SDS011;55787;52.678;13.314;2023-07-16T05:24:15;8.07;;;2.90;;
68803;SDS011;55787;52.678;13.314;2023-07-16T05:26:42;8.20;;;2.50;;
68803;SDS011;55787;52.678;13.314;2023-07-16T05:29:09;7.50;;;2.53;;
68803;SDS011;55787;52.678;13.314;2023-07-16T05:31:36;8.07;;;2.42;;
68803;SDS011;55787;52.678;13.314;2023-07-16T05:34:02;8.57;;;2.47;;
68803;SDS011;55787;52.678;13.314;2023-07-16T05:36:29;7.70;;;2.50;;
68803;SDS011;55787;52.678;13.314;2023-07-16T05:38:56;6.90;;;2.15;;
68803;SDS011;55787;52.678;13.314;2023-07-16T05:41:22;6.85;;;2.50;;
68803;SDS011;55787;52.678;13.314;2023-07-16T05:43:49;8.23;;;2.63;;
68803;SDS011;55787;52.678;13.314;2023-07-16T05:46:16;7.90;;;2.85;;
68803;SDS011;55787;52.678;13.314;2023-07-16T05:48:43;7.30;;;2.33;;
68803;SDS011;55787;52.678;13.314;2023-07-16T05:51:10;7.07;;;2.67;;
68803;SDS011;55787;52.678;13.314;2023-07-16T05:53:37;8.65;;;2.40;;
68803;SDS011;55787;52.678;13.314;2023-07-16T05:56:04;7.25;;;2.40;;
68803;SDS011;55787;52.678;13.314;2023-07-16T05:58:31;7.10;;;2.42;;
68803;SDS011;55787;52.678;13.314;2023-07-16T06:00:58;6.30;;;2.10;;
68803;SDS011;55787;52.678;13.314;2023-07-16T06:03:24;7.18;;;2.80;;
68803;SDS011;55787;52.678;13.314;2023-07-16T06:05:51;7.38;;;2.60;;
68803;SDS011;55787;52.678;13.314;2023-07-16T06:08:17;7.25;;;2.53;;
68803;SDS011;55787;52.678;13.314;2023-07-16T06:10:45;7.65;;;2.35;;
68803;SDS011;55787;52.678;13.314;2023-07-16T06:13:11;6.97;;;2.08;;
68803;SDS011;55787;52.678;13.314;2023-07-16T06:15:38;7.45;;;2.53;;
68803;SDS011;55787;52.678;13.314;2023-07-16T06:18:05;8.02;;;3.10;;
68803;SDS011;55787;52.678;13.314;2023-07-16T06:20:31;7.95;;;2.65;;
68803;SDS011;55787;52.678;13.314;2023-07-16T06:22:58;6.40;;;2.47;;
68803;SDS011;55787;52.678;13.314;2023-07-16T06:25:25;7.22;;;2.38;;
68803;SDS011;55787;52.678;13.314;2023-07-16T06:27:51;6.60;;;2.20;;
68803;SDS011;55787;52.678;13.314;2023-07-16T06:30:18;5.88;;;2.28;;
68803;SDS011;55787;52.678;13.314;2023-07-16T06:32:45;8.15;;;2.75;;
68803;SDS011;55787;52.678;13.314;2023-07-16T06:35:11;6.45;;;2.67;;
68803;SDS011;55787;52.678;13.314;2023-07-16T06:37:39;6.50;;;2.40;;
68803;SDS011;55787;52.678;13.314;2023-07-16T06:40:05;7.47;;;2.78;;
68803;SDS011;55787;52.678;13.314;2023-07-16T06:42:33;6.30;;;2.97;;
68803;SDS011;55787;52.678;13.314;2023-07-16T06:44:59;7.22;;;3.03;;
68803;SDS011;55787;52.678;13.314;2023-07-16T06:47:26;6.88;;;2.50;;
68803;SDS011;55787;52.678;13.314;2023-07-16T06:49:53;6.25;;;2.75;;
68803;SDS011;55787;52.678;13.314;2023-07-16T06:52:22;5.72;;;1.90;;
68803;SDS011;55787;52.678;13.314;2023-07-16T06:54:53;7.20;;;2.85;;
68803;SDS011;55787;52.678;13.314;2023-07-16T06:57:21;7.35;;;3.00;;
68803;SDS011;55787;52.678;13.314;2023-07-16T06:59:49;6.85;;;2.45;;
68803;SDS011;55787;52.678;13.314;2023-07-16T07:02:16;8.20;;;3.10;;
68803;SDS011;55787;52.678;13.314;2023-07-16T07:04:43;6.78;;;2.70;;
68803;SDS011;55787;52.678;13.314;2023-07-16T07:07:09;6.05;;;2.42;;
68803;SDS011;55787;52.678;13.314;2023-07-16T07:09:36;6.55;;;2.70;;
68803;SDS011;55787;52.678;13.314;2023-07-16T07:12:03;6.75;;;2.60;;
68803;SDS011;55787;52.678;13.314;2023-07-16T07:14:30;7.45;;;2.80;;
68803;SDS011;55787;52.678;13.314;2023-07-16T07:16:58;6.53;;;2.80;;
68803;SDS011;55787;52.678;13.314;2023-07-16T07:19:25;6.82;;;2.70;;
68803;SDS011;55787;52.678;13.314;2023-07-16T07:21:52;8.07;;;2.90;;
68803;SDS011;55787;52.678;13.314;2023-07-16T07:24:19;6.55;;;2.55;;
68803;SDS011;55787;52.678;13.314;2023-07-16T07:26:46;6.00;;;2.45;;
68803;SDS011;55787;52.678;13.314;2023-07-16T07:29:12;7.95;;;2.60;;
68803;SDS011;55787;52.678;13.314;2023-07-16T07:31:40;6.35;;;2.60;;
68803;SDS011;55787;52.678;13.314;2023-07-16T07:34:06;6.95;;;2.80;;
68803;SDS011;55787;52.678;13.314;2023-07-16T07:36:33;6.88;;;2.80;;
68803;SDS011;55787;52.678;13.314;2023-07-16T07:39:00;7.05;;;2.75;;
68803;SDS011;55787;52.678;13.314;2023-07-16T07:41:26;6.45;;;2.53;;
68803;SDS011;55787;52.678;13.314;2023-07-16T07:43:53;6.85;;;2.45;;
68803;SDS011;55787;52.678;13.314;2023-07-16T07:46:20;6.97;;;2.40;;
68803;SDS011;55787;52.678;13.314;2023-07-16T07:48:47;5.68;;;2.20;;
68803;SDS011;55787;52.678;13.314;2023-07-16T07:51:13;6.50;;;3.00;;
68803;SDS011;55787;52.678;13.314;2023-07-16T07:53:40;6.22;;;2.40;;
68803;SDS011;55787;52.678;13.314;2023-07-16T07:56:07;6.45;;;2.83;;
68803;SDS011;55787;52.678;13.314;2023-07-16T07:58:33;7.32;;;3.10;;
68803;SDS011;55787;52.678;13.314;2023-07-16T08:01:07;7.32;;;3.17;;
68803;SDS011;55787;52.678;13.314;2023-07-16T08:03:34;6.30;;;2.95;;
68803;SDS011;55787;52.678;13.314;2023-07-16T08:06:01;6.07;;;2.90;;
68803;SDS011;55787;52.678;13.314;2023-07-16T08:08:28;6.97;;;2.70;;
68803;SDS011;55787;52.678;13.314;2023-07-16T08:10:55;6.28;;;3.10;;
68803;SDS011;55787;52.678;13.314;2023-07-16T08:13:22;6.70;;;3.45;;
68803;SDS011;55787;52.678;13.314;2023-07-16T08:15:48;5.50;;;2.15;;
68803;SDS011;55787;52.678;13.314;2023-07-16T08:18:15;6.40;;;3.20;;
68803;SDS011;55787;52.678;13.314;2023-07-16T08:20:42;6.07;;;2.70;;
68803;SDS011;55787;52.678;13.314;2023-07-16T08:23:09;6.35;;;3.13;;
68803;SDS011;55787;52.678;13.314;2023-07-16T08:25:36;6.18;;;2.60;;
68803;SDS011;55787;52.678;13.314;2023-07-16T08:28:02;6.50;;;2.95;;
68803;SDS011;55787;52.678;13.314;2023-07-16T08:30:31;7.13;;;3.55;;
68803;SDS011;55787;52.678;13.314;2023-07-16T08:32:58;5.88;;;2.80;;
68803;SDS011;55787;52.678;13.314;2023-07-16T08:35:25;6.55;;;3.03;;
68803;SDS011;55787;52.678;13.314;2023-07-16T08:37:52;7.70;;;3.40;;
68803;SDS011;55787;52.678;13.314;2023-07-16T08:40:19;6.35;;;3.55;;
68803;SDS011;55787;52.678;13.314;2023-07-16T08:42:47;6.05;;;3.63;;
68803;SDS011;55787;52.678;13.314;2023-07-16T08:45:15;6.10;;;2.75;;
68803;SDS011;55787;52.678;13.314;2023-07-16T08:47:48;5.82;;;2.63;;
68803;SDS011;55787;52.678;13.314;2023-07-16T08:50:15;6.63;;;2.88;;
68803;SDS011;55787;52.678;13.314;2023-07-16T08:52:43;6.43;;;3.05;;
68803;SDS011;55787;52.678;13.314;2023-07-16T08:55:10;7.00;;;3.97;;
68803;SDS011;55787;52.678;13.314;2023-07-16T08:57:37;6.43;;;2.97;;
68803;SDS011;55787;52.678;13.314;2023-07-16T09:00:05;6.38;;;3.38;;
68803;SDS011;55787;52.678;13.314;2023-07-16T09:02:33;7.00;;;3.10;;
68803;SDS011;55787;52.678;13.314;2023-07-16T09:05:00;6.53;;;2.72;;
68803;SDS011;55787;52.678;13.314;2023-07-16T09:07:27;6.57;;;3.35;;
68803;SDS011;55787;52.678;13.314;2023-07-16T09:09:54;6.20;;;2.78;;
68803;SDS011;55787;52.678;13.314;2023-07-16T09:12:24;7.28;;;2.85;;
68803;SDS011;55787;52.678;13.314;2023-07-16T09:14:52;6.20;;;2.20;;
68803;SDS011;55787;52.678;13.314;2023-07-16T09:17:22;5.80;;;2.70;;
68803;SDS011;55787;52.678;13.314;2023-07-16T09:19:50;8.02;;;2.90;;
68803;SDS011;55787;52.678;13.314;2023-07-16T09:22:18;6.78;;;2.97;;
68803;SDS011;55787;52.678;13.314;2023-07-16T09:24:46;6.20;;;2.95;;
68803;SDS011;55787;52.678;13.314;2023-07-16T09:27:13;7.43;;;3.58;;
68803;SDS011;55787;52.678;13.314;2023-07-16T09:29:40;6.60;;;3.38;;
68803;SDS011;55787;52.678;13.314;2023-07-16T09:32:07;6.88;;;3.80;;
68803;SDS011;55787;52.678;13.314;2023-07-16T09:34:34;6.70;;;2.92;;
68803;SDS011;55787;52.678;13.314;2023-07-16T09:37:01;6.50;;;2.47;;
68803;SDS011;55787;52.678;13.314;2023-07-16T09:39:28;7.13;;;2.55;;
68803;SDS011;55787;52.678;13.314;2023-07-16T09:41:54;6.30;;;2.03;;
68803;SDS011;55787;52.678;13.314;2023-07-16T09:44:24;5.95;;;1.70;;
68803;SDS011;55787;52.678;13.314;2023-07-16T09:46:51;6.32;;;2.58;;
68803;SDS011;55787;52.678;13.314;2023-07-16T09:52:19;6.45;;;2.50;;
68803;SDS011;55787;52.678;13.314;2023-07-16T09:54:55;7.32;;;2.70;;
68803;SDS011;55787;52.678;13.314;2023-07-16T09:57:23;5.97;;;2.60;;
68803;SDS011;55787;52.678;13.314;2023-07-16T09:59:53;5.78;;;2.85;;
68803;SDS011;55787;52.678;13.314;2023-07-16T10:02:22;6.23;;;2.33;;
68803;SDS011;55787;52.678;13.314;2023-07-16T10:04:49;6.35;;;1.77;;
68803;SDS011;55787;52.678;13.314;2023-07-16T10:07:22;6.07;;;2.17;;
68803;SDS011;55787;52.678;13.314;2023-07-16T10:09:51;6.63;;;2.10;;
68803;SDS011;55787;52.678;13.314;2023-07-16T10:12:20;6.00;;;2.90;;
68803;SDS011;55787;52.678;13.314;2023-07-16T10:14:52;6.33;;;2.10;;
68803;SDS011;55787;52.678;13.314;2023-07-16T10:17:23;5.55;;;2.40;;
68803;SDS011;55787;52.678;13.314;2023-07-16T10:22:41;6.20;;;2.30;;
68803;SDS011;55787;52.678;13.314;2023-07-16T10:25:30;5.82;;;2.55;;
68803;SDS011;55787;52.678;13.314;2023-07-16T10:27:56;6.17;;;2.20;;
68803;SDS011;55787;52.678;13.314;2023-07-16T10:30:23;6.28;;;3.03;;
68803;SDS011;55787;52.678;13.314;2023-07-16T10:32:50;6.40;;;2.53;;
68803;SDS011;55787;52.678;13.314;2023-07-16T10:35:18;7.55;;;2.88;;
68803;SDS011;55787;52.678;13.314;2023-07-16T10:37:45;6.65;;;2.90;;
68803;SDS011;55787;52.678;13.314;2023-07-16T10:40:12;6.00;;;2.40;;
68803;SDS011;55787;52.678;13.314;2023-07-16T10:42:41;6.20;;;3.00;;
68803;SDS011;55787;52.678;13.314;2023-07-16T10:45:09;5.75;;;2.70;;
68803;SDS011;55787;52.678;13.314;2023-07-16T10:47:37;5.80;;;2.22;;
68803;SDS011;55787;52.678;13.314;2023-07-16T10:50:05;6.50;;;2.25;;
68803;SDS011;55787;52.678;13.314;2023-07-16T10:52:34;5.90;;;2.47;;
68803;SDS011;55787;52.678;13.314;2023-07-16T10:55:02;7.55;;;2.30;;
68803;SDS011;55787;52.678;13.314;2023-07-16T10:57:29;6.20;;;2.80;;
68803;SDS011;55787;52.678;13.314;2023-07-16T11:03:43;5.60;;;2.50;;
68803;SDS011;55787;52.678;13.314;2023-07-16T11:06:10;6.20;;;2.83;;
68803;SDS011;55787;52.678;13.314;2023-07-16T11:08:38;6.80;;;2.33;;
68803;SDS011;55787;52.678;13.314;2023-07-16T11:11:05;5.93;;;2.88;;
68803;SDS011;55787;52.678;13.314;2023-07-16T11:13:31;7.22;;;2.10;;
68803;SDS011;55787;52.678;13.314;2023-07-16T11:16:07;5.75;;;2.55;;
68803;SDS011;55787;52.678;13.314;2023-07-16T11:18:35;6.10;;;2.20;;
68803;SDS011;55787;52.678;13.314;2023-07-16T11:21:04;6.07;;;2.30;;
68803;SDS011;55787;52.678;13.314;2023-07-16T11:23:34;6.10;;;2.60;;
68803;SDS011;55787;52.678;13.314;2023-07-16T11:26:02;6.20;;;2.10;;
68803;SDS011;55787;52.678;13.314;2023-07-16T11:28:36;5.63;;;2.22;;
68803;SDS011;55787;52.678;13.314;2023-07-16T11:31:10;6.13;;;2.10;;
68803;SDS011;55787;52.678;13.314;2023-07-16T11:33:41;7.07;;;2.90;;
68803;SDS011;55787;52.678;13.314;2023-07-16T11:36:08;6.30;;;2.83;;
68803;SDS011;55787;52.678;13.314;2023-07-16T11:38:36;7.05;;;2.05;;
68803;SDS011;55787;52.678;13.314;2023-07-16T11:44:48;6.37;;;1.80;;
68803;SDS011;55787;52.678;13.314;2023-07-16T11:47:15;6.28;;;2.05;;
68803;SDS011;55787;52.678;13.314;2023-07-16T11:49:42;5.95;;;2.00;;
68803;SDS011;55787;52.678;13.314;2023-07-16T11:52:08;6.15;;;2.35;;
68803;SDS011;55787;52.678;13.314;2023-07-16T11:54:35;7.30;;;2.15;;
68803;SDS011;55787;52.678;13.314;2023-07-16T11:57:02;6.23;;;2.00;;
68803;SDS011;55787;52.678;13.314;2023-07-16T11:59:28;6.82;;;2.70;;
68803;SDS011;55787;52.678;13.314;2023-07-16T12:01:55;6.38;;;1.95;;
68803;SDS011;55787;52.678;13.314;2023-07-16T12:04:22;5.47;;;1.70;;
68803;SDS011;55787;52.678;13.314;2023-07-16T12:06:48;5.85;;;2.10;;
68803;SDS011;55787;52.678;13.314;2023-07-16T12:09:15;7.13;;;2.30;;
68803;SDS011;55787;52.678;13.314;2023-07-16T12:11:42;6.55;;;2.00;;
68803;SDS011;55787;52.678;13.314;2023-07-16T12:14:08;6.60;;;2.00;;
68803;SDS011;55787;52.678;13.314;2023-07-16T12:16:35;5.82;;;2.20;;
68803;SDS011;55787;52.678;13.314;2023-07-16T12:19:02;6.00;;;2.42;;
68803;SDS011;55787;52.678;13.314;2023-07-16T12:21:29;6.23;;;2.23;;
68803;SDS011;55787;52.678;13.314;2023-07-16T12:23:55;5.57;;;2.10;;
68803;SDS011;55787;52.678;13.314;2023-07-16T12:26:22;6.03;;;2.25;;
68803;SDS011;55787;52.678;13.314;2023-07-16T12:28:49;5.40;;;1.70;;
68803;SDS011;55787;52.678;13.314;2023-07-16T12:31:15;6.10;;;2.00;;
68803;SDS011;55787;52.678;13.314;2023-07-16T12:33:46;6.43;;;2.00;;
68803;SDS011;55787;52.678;13.314;2023-07-16T12:36:13;6.63;;;1.73;;
68803;SDS011;55787;52.678;13.314;2023-07-16T12:38:41;5.40;;;1.85;;
68803;SDS011;55787;52.678;13.314;2023-07-16T12:41:08;6.13;;;1.73;;
68803;SDS011;55787;52.678;13.314;2023-07-16T12:43:35;5.60;;;1.83;;
68803;SDS011;55787;52.678;13.314;2023-07-16T12:46:03;5.80;;;1.90;;
68803;SDS011;55787;52.678;13.314;2023-07-16T12:48:31;5.60;;;2.13;;
68803;SDS011;55787;52.678;13.314;2023-07-16T12:50:58;5.93;;;2.15;;
68803;SDS011;55787;52.678;13.314;2023-07-16T12:53:25;6.47;;;1.83;;
68803;SDS011;55787;52.678;13.314;2023-07-16T12:55:52;5.30;;;1.73;;
68803;SDS011;55787;52.678;13.314;2023-07-16T12:58:19;5.90;;;2.00;;
68803;SDS011;55787;52.678;13.314;2023-07-16T13:00:45;6.15;;;1.70;;
68803;SDS011;55787;52.678;13.314;2023-07-16T13:03:12;5.72;;;1.77;;
68803;SDS011;55787;52.678;13.314;2023-07-16T13:05:43;5.53;;;1.70;;
68803;SDS011;55787;52.678;13.314;2023-07-16T13:08:11;7.78;;;1.90;;
68803;SDS011;55787;52.678;13.314;2023-07-16T13:10:38;5.87;;;2.10;;
68803;SDS011;55787;52.678;13.314;2023-07-16T13:13:05;7.68;;;1.98;;
68803;SDS011;55787;52.678;13.314;2023-07-16T13:15:34;5.95;;;2.15;;
68803;SDS011;55787;52.678;13.314;2023-07-16T13:18:00;5.60;;;1.83;;
68803;SDS011;55787;52.678;13.314;2023-07-16T13:20:27;6.20;;;1.90;;
68803;SDS011;55787;52.678;13.314;2023-07-16T13:22:56;5.70;;;1.87;;
68803;SDS011;55787;52.678;13.314;2023-07-16T13:25:23;6.50;;;1.80;;
68803;SDS011;55787;52.678;13.314;2023-07-16T13:27:50;6.25;;;1.90;;
68803;SDS011;55787;52.678;13.314;2023-07-16T13:30:19;5.10;;;1.40;;
68803;SDS011;55787;52.678;13.314;2023-07-16T13:32:46;5.25;;;1.60;;
68803;SDS011;55787;52.678;13.314;2023-07-16T13:35:15;5.87;;;1.60;;
68803;SDS011;55787;52.678;13.314;2023-07-16T13:37:42;5.82;;;1.40;;
68803;SDS011;55787;52.678;13.314;2023-07-16T13:40:09;5.97;;;1.63;;
68803;SDS011;55787;52.678;13.314;2023-07-16T13:42:36;5.95;;;1.42;;
68803;SDS011;55787;52.678;13.314;2023-07-16T13:45:03;6.13;;;1.67;;
68803;SDS011;55787;52.678;13.314;2023-07-16T13:47:30;5.27;;;1.40;;
68803;SDS011;55787;52.678;13.314;2023-07-16T13:49:57;6.20;;;1.48;;
68803;SDS011;55787;52.678;13.314;2023-07-16T13:52:24;5.53;;;1.50;;
68803;SDS011;55787;52.678;13.314;2023-07-16T13:54:51;5.10;;;1.20;;
68803;SDS011;55787;52.678;13.314;2023-07-16T13:57:17;6.97;;;1.52;;
68803;SDS011;55787;52.678;13.314;2023-07-16T13:59:44;4.90;;;1.20;;
68803;SDS011;55787;52.678;13.314;2023-07-16T14:02:11;6.40;;;1.48;;
68803;SDS011;55787;52.678;13.314;2023-07-16T14:04:38;5.18;;;1.27;;
68803;SDS011;55787;52.678;13.314;2023-07-16T14:07:04;6.22;;;1.40;;
68803;SDS011;55787;52.678;13.314;2023-07-16T14:09:31;6.30;;;1.35;;
68803;SDS011;55787;52.678;13.314;2023-07-16T14:11:58;6.70;;;1.70;;
68803;SDS011;55787;52.678;13.314;2023-07-16T14:14:25;5.53;;;1.48;;
68803;SDS011;55787;52.678;13.314;2023-07-16T14:16:52;5.38;;;1.40;;
68803;SDS011;55787;52.678;13.314;2023-07-16T14:19:19;6.38;;;1.48;;
68803;SDS011;55787;52.678;13.314;2023-07-16T14:21:46;5.90;;;1.50;;
68803;SDS011;55787;52.678;13.314;2023-07-16T14:24:13;5.70;;;1.30;;
68803;SDS011;55787;52.678;13.314;2023-07-16T14:26:39;5.90;;;1.20;;
68803;SDS011;55787;52.678;13.314;2023-07-16T14:29:06;4.85;;;1.10;;
68803;SDS011;55787;52.678;13.314;2023-07-16T14:31:33;5.35;;;1.23;;
68803;SDS011;55787;52.678;13.314;2023-07-16T14:34:00;5.80;;;1.27;;
68803;SDS011;55787;52.678;13.314;2023-07-16T14:36:26;6.47;;;1.50;;
68803;SDS011;55787;52.678;13.314;2023-07-16T14:38:54;5.95;;;1.70;;
68803;SDS011;55787;52.678;13.314;2023-07-16T14:41:21;6.53;;;1.50;;
68803;SDS011;55787;52.678;13.314;2023-07-16T14:43:48;6.13;;;1.23;;
68803;SDS011;55787;52.678;13.314;2023-07-16T14:46:16;5.90;;;1.40;;
68803;SDS011;55787;52.678;13.314;2023-07-16T14:48:45;6.37;;;1.40;;
68803;SDS011;55787;52.678;13.314;2023-07-16T14:51:12;5.72;;;1.20;;
68803;SDS011;55787;52.678;13.314;2023-07-16T14:53:39;5.03;;;1.20;;